Oujda/Angades, Morocco

6:42 AM WET on December 08, 2016 (GMT +0000)
Zenata-Messali El Hadj | | Change Station

Elev 810 ft 35.01 °N, 1.46 °W | Updated 12 minutes ago

Partly Cloudy
Partly Cloudy
50 °F
Feels Like 50 °F
N
0
Wind Variable Wind from North

Today
High -- | Low -- °F
--% Chance of Precip.
Yesterday
High -- | Low -- °F
Precip. -- in
Pressure 30.39 in
Visibility 6.2 miles
Clouds Few 1000 ft
Scattered Clouds 2600 ft
Dew Point 48 °F
Humidity 94%
Rainfall 0.00 in
Snow Depth Not available.
7:02 AM 4:56 PM
First Quarter, 60% visible
METAR DAON 080630Z 00000KT 9999 FEW010 SCT026 10/09 Q1029
Pressure 30.39 in
Visibility 6.2 miles
Clouds Few 1000 ft
Scattered Clouds 2600 ft
Dew Point 48 °F
Humidity 94%
Rainfall 0.00 in
Snow Depth Not available.
7:02 AM 4:56 PM
First Quarter, 60% visible
METAR DAON 080630Z 00000KT 9999 FEW010 SCT026 10/09 Q1029

10-Day Weather Forecast

No radar image for this location.
×

Almanac

Astronomy

Dec. 08, 2016 Rise Set
Actual Time
Civil Twilight
Nautical Twilight
Astronomical Twilight
Moon
Length of Visible Light
Length of Day
Tomorrow will be .
, % of the Moon is Illuminated

Today's Extremes

Country Highs Country Lows

Community

WunderPhotos

Upload Photos

1,956,259 photos uploaded!

WunderBlog® & News

Nearby

Air Quality

  Air Quality AQ Index Pollutant
Not available.

Snow Depth

Station Depth Elevation

Earthquake Activity

City Distance Mag. Time & Date
Minimum magnitude displayed is 2.5.

Coastal Water Temperatures

Place Temperature

Stations

Nearby Weather Stations

Station Location Temp. Windchill Dew Point Humidity Wind Precip. Elev Updated Type